sensor_id;sensor_type;location;lat;lon;timestamp;P1;durP1;ratioP1;P2;durP2;ratioP2
68178;SDS011;54998;42.656;23.382;2022-09-03T00:02:52;8.63;;;4.40;;
68178;SDS011;54998;42.656;23.382;2022-09-03T00:05:39;9.30;;;5.40;;
68178;SDS011;54998;42.656;23.382;2022-09-03T00:13:54;8.88;;;4.90;;
68178;SDS011;54998;42.656;23.382;2022-09-03T00:16:27;8.40;;;5.40;;
68178;SDS011;54998;42.656;23.382;2022-09-03T00:18:59;7.47;;;4.30;;
68178;SDS011;54998;42.656;23.382;2022-09-03T00:24:21;8.43;;;4.70;;
68178;SDS011;54998;42.656;23.382;2022-09-03T00:26:49;9.52;;;5.22;;
68178;SDS011;54998;42.656;23.382;2022-09-03T00:29:23;9.05;;;4.53;;
68178;SDS011;54998;42.656;23.382;2022-09-03T00:31:53;10.27;;;5.18;;
68178;SDS011;54998;42.656;23.382;2022-09-03T00:34:28;8.20;;;4.47;;
68178;SDS011;54998;42.656;23.382;2022-09-03T00:36:57;7.97;;;4.10;;
68178;SDS011;54998;42.656;23.382;2022-09-03T00:39:24;9.07;;;4.78;;
68178;SDS011;54998;42.656;23.382;2022-09-03T00:45:22;10.20;;;5.30;;
68178;SDS011;54998;42.656;23.382;2022-09-03T00:48:04;10.52;;;5.90;;
68178;SDS011;54998;42.656;23.382;2022-09-03T00:53:29;9.88;;;5.35;;
68178;SDS011;54998;42.656;23.382;2022-09-03T01:01:50;9.98;;;5.28;;
68178;SDS011;54998;42.656;23.382;2022-09-03T01:07:27;9.02;;;4.55;;
68178;SDS011;54998;42.656;23.382;2022-09-03T01:10:39;8.98;;;4.90;;
68178;SDS011;54998;42.656;23.382;2022-09-03T01:13:09;8.25;;;3.95;;
68178;SDS011;54998;42.656;23.382;2022-09-03T01:46:40;11.18;;;5.65;;
68178;SDS011;54998;42.656;23.382;2022-09-03T01:49:29;6.72;;;3.28;;
68178;SDS011;54998;42.656;23.382;2022-09-03T01:52:02;7.20;;;4.65;;
68178;SDS011;54998;42.656;23.382;2022-09-03T01:54:52;8.80;;;5.30;;
68178;SDS011;54998;42.656;23.382;2022-09-03T02:02:37;8.55;;;4.82;;
68178;SDS011;54998;42.656;23.382;2022-09-03T02:07:33;10.77;;;5.80;;
68178;SDS011;54998;42.656;23.382;2022-09-03T02:10:01;10.15;;;5.65;;
68178;SDS011;54998;42.656;23.382;2022-09-03T02:12:29;9.23;;;5.22;;
68178;SDS011;54998;42.656;23.382;2022-09-03T02:15:00;8.05;;;4.80;;
68178;SDS011;54998;42.656;23.382;2022-09-03T02:17:30;10.35;;;5.32;;
68178;SDS011;54998;42.656;23.382;2022-09-03T02:19:57;7.65;;;3.55;;
68178;SDS011;54998;42.656;23.382;2022-09-03T02:22:23;8.85;;;4.78;;
68178;SDS011;54998;42.656;23.382;2022-09-03T02:24:49;11.20;;;5.35;;
68178;SDS011;54998;42.656;23.382;2022-09-03T02:27:14;8.18;;;4.35;;
68178;SDS011;54998;42.656;23.382;2022-09-03T02:29:40;8.75;;;4.85;;
68178;SDS011;54998;42.656;23.382;2022-09-03T02:32:06;9.50;;;5.18;;
68178;SDS011;54998;42.656;23.382;2022-09-03T02:34:32;8.30;;;4.78;;
68178;SDS011;54998;42.656;23.382;2022-09-03T02:36:58;9.25;;;5.50;;
68178;SDS011;54998;42.656;23.382;2022-09-03T02:39:24;10.80;;;6.20;;
68178;SDS011;54998;42.656;23.382;2022-09-03T02:41:53;10.48;;;5.78;;
68178;SDS011;54998;42.656;23.382;2022-09-03T02:44:25;10.82;;;5.65;;
68178;SDS011;54998;42.656;23.382;2022-09-03T02:47:02;7.60;;;3.85;;
68178;SDS011;54998;42.656;23.382;2022-09-03T02:49:29;8.38;;;4.75;;
68178;SDS011;54998;42.656;23.382;2022-09-03T02:51:59;10.35;;;4.85;;
68178;SDS011;54998;42.656;23.382;2022-09-03T02:54:30;9.05;;;5.50;;
68178;SDS011;54998;42.656;23.382;2022-09-03T02:56:57;10.93;;;5.13;;
68178;SDS011;54998;42.656;23.382;2022-09-03T02:59:23;9.48;;;5.30;;
68178;SDS011;54998;42.656;23.382;2022-09-03T03:01:52;11.40;;;5.50;;
68178;SDS011;54998;42.656;23.382;2022-09-03T03:04:18;8.52;;;3.85;;
68178;SDS011;54998;42.656;23.382;2022-09-03T03:06:43;12.88;;;5.03;;
68178;SDS011;54998;42.656;23.382;2022-09-03T03:09:09;10.60;;;5.57;;
68178;SDS011;54998;42.656;23.382;2022-09-03T03:11:34;9.15;;;4.95;;
68178;SDS011;54998;42.656;23.382;2022-09-03T03:14:01;9.80;;;5.40;;
68178;SDS011;54998;42.656;23.382;2022-09-03T03:16:26;10.27;;;5.40;;
68178;SDS011;54998;42.656;23.382;2022-09-03T03:18:52;9.93;;;5.05;;
68178;SDS011;54998;42.656;23.382;2022-09-03T03:21:17;8.13;;;4.13;;
68178;SDS011;54998;42.656;23.382;2022-09-03T03:23:43;10.23;;;5.25;;
68178;SDS011;54998;42.656;23.382;2022-09-03T03:26:10;9.80;;;5.75;;
68178;SDS011;54998;42.656;23.382;2022-09-03T03:28:37;10.70;;;5.40;;
68178;SDS011;54998;42.656;23.382;2022-09-03T03:31:09;8.68;;;5.13;;
68178;SDS011;54998;42.656;23.382;2022-09-03T03:33:37;10.95;;;5.50;;
68178;SDS011;54998;42.656;23.382;2022-09-03T03:36:07;10.38;;;5.85;;
68178;SDS011;54998;42.656;23.382;2022-09-03T03:38:35;8.90;;;5.22;;
68178;SDS011;54998;42.656;23.382;2022-09-03T03:41:11;9.60;;;5.03;;
68178;SDS011;54998;42.656;23.382;2022-09-03T03:43:51;9.73;;;5.05;;
68178;SDS011;54998;42.656;23.382;2022-09-03T03:46:22;9.52;;;5.75;;
68178;SDS011;54998;42.656;23.382;2022-09-03T03:48:52;8.40;;;4.38;;
68178;SDS011;54998;42.656;23.382;2022-09-03T03:51:17;10.25;;;5.32;;
68178;SDS011;54998;42.656;23.382;2022-09-03T03:53:43;8.77;;;5.25;;
68178;SDS011;54998;42.656;23.382;2022-09-03T03:56:10;8.65;;;5.25;;
68178;SDS011;54998;42.656;23.382;2022-09-03T03:58:37;10.50;;;4.53;;
68178;SDS011;54998;42.656;23.382;2022-09-03T04:01:16;9.90;;;5.05;;
68178;SDS011;54998;42.656;23.382;2022-09-03T04:03:43;10.02;;;5.70;;
68178;SDS011;54998;42.656;23.382;2022-09-03T04:06:10;8.68;;;4.97;;
68178;SDS011;54998;42.656;23.382;2022-09-03T04:08:39;7.95;;;4.15;;
68178;SDS011;54998;42.656;23.382;2022-09-03T04:11:07;6.05;;;3.28;;
68178;SDS011;54998;42.656;23.382;2022-09-03T04:13:37;9.80;;;5.63;;
68178;SDS011;54998;42.656;23.382;2022-09-03T04:16:08;9.13;;;5.20;;
68178;SDS011;54998;42.656;23.382;2022-09-03T04:18:47;9.70;;;4.85;;
68178;SDS011;54998;42.656;23.382;2022-09-03T04:21:14;9.80;;;5.18;;
68178;SDS011;54998;42.656;23.382;2022-09-03T04:23:50;8.27;;;4.00;;
68178;SDS011;54998;42.656;23.382;2022-09-03T04:26:18;8.95;;;4.63;;
68178;SDS011;54998;42.656;23.382;2022-09-03T04:28:45;8.88;;;5.05;;
68178;SDS011;54998;42.656;23.382;2022-09-03T04:31:12;10.40;;;5.85;;
68178;SDS011;54998;42.656;23.382;2022-09-03T04:33:39;9.27;;;4.95;;
68178;SDS011;54998;42.656;23.382;2022-09-03T04:36:15;10.63;;;6.00;;
68178;SDS011;54998;42.656;23.382;2022-09-03T04:38:42;9.20;;;5.57;;
68178;SDS011;54998;42.656;23.382;2022-09-03T04:41:10;10.13;;;5.75;;
68178;SDS011;54998;42.656;23.382;2022-09-03T04:43:41;10.02;;;5.35;;
68178;SDS011;54998;42.656;23.382;2022-09-03T04:48:34;11.13;;;5.78;;
68178;SDS011;54998;42.656;23.382;2022-09-03T04:51:08;10.90;;;5.68;;
68178;SDS011;54998;42.656;23.382;2022-09-03T04:53:39;8.80;;;5.13;;
68178;SDS011;54998;42.656;23.382;2022-09-03T04:56:16;10.70;;;5.45;;
68178;SDS011;54998;42.656;23.382;2022-09-03T05:01:16;10.45;;;5.20;;
68178;SDS011;54998;42.656;23.382;2022-09-03T05:03:43;9.38;;;5.38;;
68178;SDS011;54998;42.656;23.382;2022-09-03T05:06:09;7.88;;;4.80;;
68178;SDS011;54998;42.656;23.382;2022-09-03T05:08:35;8.65;;;4.90;;
68178;SDS011;54998;42.656;23.382;2022-09-03T05:11:02;9.13;;;5.53;;
68178;SDS011;54998;42.656;23.382;2022-09-03T05:13:28;10.65;;;5.47;;
68178;SDS011;54998;42.656;23.382;2022-09-03T05:16:03;8.10;;;4.95;;
68178;SDS011;54998;42.656;23.382;2022-09-03T05:18:31;8.50;;;4.88;;
68178;SDS011;54998;42.656;23.382;2022-09-03T05:21:00;7.20;;;4.05;;
68178;SDS011;54998;42.656;23.382;2022-09-03T05:23:28;8.00;;;4.70;;
68178;SDS011;54998;42.656;23.382;2022-09-03T05:25:58;7.97;;;5.05;;
68178;SDS011;54998;42.656;23.382;2022-09-03T05:28:26;8.85;;;4.65;;
68178;SDS011;54998;42.656;23.382;2022-09-03T05:31:16;7.95;;;4.75;;
68178;SDS011;54998;42.656;23.382;2022-09-03T05:33:54;10.35;;;4.85;;
68178;SDS011;54998;42.656;23.382;2022-09-03T05:36:23;9.95;;;4.35;;
68178;SDS011;54998;42.656;23.382;2022-09-03T05:38:50;7.18;;;4.13;;
68178;SDS011;54998;42.656;23.382;2022-09-03T05:41:21;7.30;;;4.60;;
68178;SDS011;54998;42.656;23.382;2022-09-03T05:43:48;7.80;;;4.78;;
68178;SDS011;54998;42.656;23.382;2022-09-03T05:46:20;9.27;;;4.55;;
68178;SDS011;54998;42.656;23.382;2022-09-03T05:48:50;12.60;;;5.07;;
68178;SDS011;54998;42.656;23.382;2022-09-03T05:51:16;7.05;;;3.97;;
68178;SDS011;54998;42.656;23.382;2022-09-03T05:53:42;8.10;;;4.93;;
68178;SDS011;54998;42.656;23.382;2022-09-03T05:56:10;8.10;;;4.78;;
68178;SDS011;54998;42.656;23.382;2022-09-03T05:58:41;8.55;;;4.03;;
68178;SDS011;54998;42.656;23.382;2022-09-03T06:01:17;8.95;;;4.85;;
68178;SDS011;54998;42.656;23.382;2022-09-03T06:03:44;7.60;;;4.78;;
68178;SDS011;54998;42.656;23.382;2022-09-03T06:06:11;9.48;;;4.50;;
68178;SDS011;54998;42.656;23.382;2022-09-03T06:08:40;8.65;;;4.80;;
68178;SDS011;54998;42.656;23.382;2022-09-03T06:11:08;7.47;;;4.75;;
68178;SDS011;54998;42.656;23.382;2022-09-03T06:13:35;8.05;;;5.00;;
68178;SDS011;54998;42.656;23.382;2022-09-03T06:16:02;8.40;;;4.68;;
68178;SDS011;54998;42.656;23.382;2022-09-03T06:18:29;9.40;;;4.30;;
68178;SDS011;54998;42.656;23.382;2022-09-03T06:20:55;8.45;;;4.43;;
68178;SDS011;54998;42.656;23.382;2022-09-03T06:23:22;8.20;;;4.03;;
68178;SDS011;54998;42.656;23.382;2022-09-03T06:25:58;6.63;;;3.72;;
68178;SDS011;54998;42.656;23.382;2022-09-03T06:28:29;8.10;;;4.63;;
68178;SDS011;54998;42.656;23.382;2022-09-03T06:30:58;8.73;;;4.63;;
68178;SDS011;54998;42.656;23.382;2022-09-03T06:33:24;10.20;;;4.90;;
68178;SDS011;54998;42.656;23.382;2022-09-03T06:35:56;8.88;;;4.78;;
68178;SDS011;54998;42.656;23.382;2022-09-03T06:38:23;7.80;;;5.07;;
68178;SDS011;54998;42.656;23.382;2022-09-03T06:40:51;8.10;;;4.70;;
68178;SDS011;54998;42.656;23.382;2022-09-03T06:43:31;8.38;;;5.07;;
68178;SDS011;54998;42.656;23.382;2022-09-03T06:46:00;7.38;;;4.45;;
68178;SDS011;54998;42.656;23.382;2022-09-03T06:48:28;9.98;;;5.13;;
68178;SDS011;54998;42.656;23.382;2022-09-03T06:50:56;8.15;;;4.85;;
68178;SDS011;54998;42.656;23.382;2022-09-03T06:53:25;10.77;;;5.05;;
68178;SDS011;54998;42.656;23.382;2022-09-03T06:55:58;8.25;;;5.10;;
68178;SDS011;54998;42.656;23.382;2022-09-03T06:58:29;9.20;;;5.07;;
68178;SDS011;54998;42.656;23.382;2022-09-03T07:01:18;9.75;;;4.63;;
68178;SDS011;54998;42.656;23.382;2022-09-03T07:03:46;10.70;;;5.97;;
68178;SDS011;54998;42.656;23.382;2022-09-03T07:06:16;9.20;;;5.18;;
68178;SDS011;54998;42.656;23.382;2022-09-03T07:08:43;8.52;;;4.90;;
68178;SDS011;54998;42.656;23.382;2022-09-03T07:11:17;7.38;;;4.70;;
68178;SDS011;54998;42.656;23.382;2022-09-03T07:13:47;9.65;;;5.85;;
68178;SDS011;54998;42.656;23.382;2022-09-03T07:16:15;8.45;;;5.13;;
68178;SDS011;54998;42.656;23.382;2022-09-03T07:18:45;9.32;;;5.28;;
68178;SDS011;54998;42.656;23.382;2022-09-03T07:21:13;9.30;;;5.75;;
68178;SDS011;54998;42.656;23.382;2022-09-03T07:23:50;10.05;;;5.05;;
68178;SDS011;54998;42.656;23.382;2022-09-03T07:26:17;9.50;;;5.65;;
68178;SDS011;54998;42.656;23.382;2022-09-03T07:28:47;9.95;;;6.10;;
68178;SDS011;54998;42.656;23.382;2022-09-03T07:31:29;7.78;;;4.43;;
68178;SDS011;54998;42.656;23.382;2022-09-03T07:34:00;8.60;;;5.65;;
68178;SDS011;54998;42.656;23.382;2022-09-03T07:36:30;9.27;;;5.43;;
68178;SDS011;54998;42.656;23.382;2022-09-03T07:39:02;7.97;;;4.72;;
68178;SDS011;54998;42.656;23.382;2022-09-03T07:41:28;7.93;;;5.00;;
68178;SDS011;54998;42.656;23.382;2022-09-03T07:43:57;7.82;;;4.97;;
68178;SDS011;54998;42.656;23.382;2022-09-03T07:48:55;8.10;;;4.70;;
68178;SDS011;54998;42.656;23.382;2022-09-03T07:51:23;6.60;;;4.38;;
68178;SDS011;54998;42.656;23.382;2022-09-03T07:53:51;6.97;;;4.60;;
68178;SDS011;54998;42.656;23.382;2022-09-03T07:56:19;6.32;;;4.53;;
68178;SDS011;54998;42.656;23.382;2022-09-03T07:58:45;7.38;;;4.30;;
68178;SDS011;54998;42.656;23.382;2022-09-03T08:01:12;5.57;;;3.72;;
68178;SDS011;54998;42.656;23.382;2022-09-03T08:03:43;5.45;;;3.88;;
68178;SDS011;54998;42.656;23.382;2022-09-03T08:06:10;6.45;;;4.30;;
68178;SDS011;54998;42.656;23.382;2022-09-03T08:08:37;6.93;;;4.25;;
68178;SDS011;54998;42.656;23.382;2022-09-03T08:11:14;8.02;;;4.72;;
68178;SDS011;54998;42.656;23.382;2022-09-03T08:13:42;8.60;;;4.50;;
68178;SDS011;54998;42.656;23.382;2022-09-03T08:16:10;7.07;;;4.70;;
68178;SDS011;54998;42.656;23.382;2022-09-03T08:18:37;7.30;;;4.97;;
68178;SDS011;54998;42.656;23.382;2022-09-03T08:21:06;5.75;;;4.32;;
68178;SDS011;54998;42.656;23.382;2022-09-03T08:23:37;5.97;;;4.55;;
68178;SDS011;54998;42.656;23.382;2022-09-03T08:26:04;6.18;;;4.32;;
68178;SDS011;54998;42.656;23.382;2022-09-03T08:28:31;7.10;;;4.65;;
68178;SDS011;54998;42.656;23.382;2022-09-03T08:30:58;6.00;;;4.68;;
68178;SDS011;54998;42.656;23.382;2022-09-03T08:33:29;8.93;;;7.07;;
68178;SDS011;54998;42.656;23.382;2022-09-03T08:38:33;6.40;;;4.72;;
68178;SDS011;54998;42.656;23.382;2022-09-03T08:41:11;5.38;;;4.00;;
68178;SDS011;54998;42.656;23.382;2022-09-03T08:46:22;4.25;;;3.25;;
68178;SDS011;54998;42.656;23.382;2022-09-03T08:48:52;6.10;;;3.53;;
68178;SDS011;54998;42.656;23.382;2022-09-03T08:51:19;5.32;;;4.35;;
68178;SDS011;54998;42.656;23.382;2022-09-03T08:53:49;5.22;;;3.80;;
68178;SDS011;54998;42.656;23.382;2022-09-03T08:56:29;16.05;;;10.00;;
68178;SDS011;54998;42.656;23.382;2022-09-03T08:58:57;5.28;;;4.20;;
68178;SDS011;54998;42.656;23.382;2022-09-03T09:11:31;6.90;;;4.72;;
68178;SDS011;54998;42.656;23.382;2022-09-03T09:14:03;7.00;;;4.82;;
68178;SDS011;54998;42.656;23.382;2022-09-03T09:22:02;4.90;;;4.00;;
68178;SDS011;54998;42.656;23.382;2022-09-03T09:27:03;7.38;;;4.60;;
68178;SDS011;54998;42.656;23.382;2022-09-03T09:29:31;6.28;;;4.53;;
68178;SDS011;54998;42.656;23.382;2022-09-03T09:31:59;7.35;;;5.13;;
68178;SDS011;54998;42.656;23.382;2022-09-03T09:34:25;5.38;;;4.10;;
68178;SDS011;54998;42.656;23.382;2022-09-03T09:36:52;5.00;;;4.03;;
68178;SDS011;54998;42.656;23.382;2022-09-03T09:39:19;7.95;;;5.13;;
68178;SDS011;54998;42.656;23.382;2022-09-03T09:44:29;10.30;;;5.65;;
68178;SDS011;54998;42.656;23.382;2022-09-03T09:47:11;6.72;;;4.95;;
68178;SDS011;54998;42.656;23.382;2022-09-03T09:52:11;6.38;;;4.65;;
68178;SDS011;54998;42.656;23.382;2022-09-03T09:54:39;5.63;;;4.85;;
68178;SDS011;54998;42.656;23.382;2022-09-03T09:57:12;6.30;;;4.45;;
68178;SDS011;54998;42.656;23.382;2022-09-03T09:59:45;6.32;;;4.57;;
68178;SDS011;54998;42.656;23.382;2022-09-03T10:02:18;5.07;;;3.90;;
68178;SDS011;54998;42.656;23.382;2022-09-03T10:04:48;6.40;;;5.25;;
68178;SDS011;54998;42.656;23.382;2022-09-03T10:07:20;5.85;;;4.20;;
68178;SDS011;54998;42.656;23.382;2022-09-03T10:12:40;6.10;;;4.28;;
68178;SDS011;54998;42.656;23.382;2022-09-03T10:23:24;5.32;;;4.55;;
68178;SDS011;54998;42.656;23.382;2022-09-03T10:25:58;5.57;;;4.82;;
68178;SDS011;54998;42.656;23.382;2022-09-03T10:28:34;6.25;;;4.93;;
68178;SDS011;54998;42.656;23.382;2022-09-03T10:33:43;4.80;;;4.00;;
68178;SDS011;54998;42.656;23.382;2022-09-03T10:36:21;5.25;;;4.40;;
68178;SDS011;54998;42.656;23.382;2022-09-03T10:39:03;4.57;;;4.07;;
68178;SDS011;54998;42.656;23.382;2022-09-03T10:52:02;5.65;;;4.18;;
68178;SDS011;54998;42.656;23.382;2022-09-03T11:05:34;4.90;;;4.40;;
68178;SDS011;54998;42.656;23.382;2022-09-03T11:08:32;5.00;;;4.47;;
68178;SDS011;54998;42.656;23.382;2022-09-03T11:13:46;5.43;;;3.95;;
68178;SDS011;54998;42.656;23.382;2022-09-03T11:16:33;5.53;;;4.25;;
68178;SDS011;54998;42.656;23.382;2022-09-03T11:19:05;6.28;;;4.82;;
68178;SDS011;54998;42.656;23.382;2022-09-03T11:21:35;4.78;;;3.80;;
68178;SDS011;54998;42.656;23.382;2022-09-03T11:24:12;5.00;;;3.80;;
68178;SDS011;54998;42.656;23.382;2022-09-03T11:26:44;4.43;;;4.03;;
68178;SDS011;54998;42.656;23.382;2022-09-03T11:32:04;4.80;;;4.03;;
68178;SDS011;54998;42.656;23.382;2022-09-03T11:34:47;4.32;;;3.92;;
68178;SDS011;54998;42.656;23.382;2022-09-03T11:40:31;4.30;;;3.58;;
68178;SDS011;54998;42.656;23.382;2022-09-03T11:42:44;5.18;;;4.22;;
68178;SDS011;54998;42.656;23.382;2022-09-03T11:47:42;3.83;;;3.08;;
68178;SDS011;54998;42.656;23.382;2022-09-03T11:52:52;4.78;;;3.42;;
68178;SDS011;54998;42.656;23.382;2022-09-03T11:55:27;4.70;;;3.67;;
68178;SDS011;54998;42.656;23.382;2022-09-03T11:57:56;4.53;;;3.55;;
68178;SDS011;54998;42.656;23.382;2022-09-03T12:14:07;5.85;;;4.40;;
68178;SDS011;54998;42.656;23.382;2022-09-03T12:22:18;6.40;;;4.95;;
68178;SDS011;54998;42.656;23.382;2022-09-03T12:24:45;6.22;;;4.35;;
68178;SDS011;54998;42.656;23.382;2022-09-03T12:27:19;5.63;;;3.75;;
68178;SDS011;54998;42.656;23.382;2022-09-03T12:29:55;4.85;;;3.70;;
68178;SDS011;54998;42.656;23.382;2022-09-03T12:32:27;5.43;;;3.83;;
68178;SDS011;54998;42.656;23.382;2022-09-03T12:34:56;5.55;;;3.60;;
68178;SDS011;54998;42.656;23.382;2022-09-03T12:37:23;4.75;;;4.00;;
68178;SDS011;54998;42.656;23.382;2022-09-03T12:39:51;5.68;;;4.20;;
68178;SDS011;54998;42.656;23.382;2022-09-03T12:44:46;6.22;;;4.47;;
68178;SDS011;54998;42.656;23.382;2022-09-03T12:47:16;6.10;;;4.30;;
68178;SDS011;54998;42.656;23.382;2022-09-03T12:49:45;5.70;;;4.72;;
68178;SDS011;54998;42.656;23.382;2022-09-03T12:57:33;5.97;;;4.47;;
68178;SDS011;54998;42.656;23.382;2022-09-03T13:00:04;6.32;;;4.57;;
68178;SDS011;54998;42.656;23.382;2022-09-03T13:02:40;5.68;;;3.75;;
68178;SDS011;54998;42.656;23.382;2022-09-03T13:05:15;6.25;;;4.00;;
68178;SDS011;54998;42.656;23.382;2022-09-03T13:07:47;6.03;;;3.85;;
68178;SDS011;54998;42.656;23.382;2022-09-03T13:10:22;6.13;;;3.90;;
68178;SDS011;54998;42.656;23.382;2022-09-03T13:12:51;5.93;;;3.83;;
68178;SDS011;54998;42.656;23.382;2022-09-03T13:15:22;6.63;;;4.60;;
68178;SDS011;54998;42.656;23.382;2022-09-03T13:20:42;4.80;;;2.70;;
68178;SDS011;54998;42.656;23.382;2022-09-03T13:23:40;3.88;;;2.70;;
68178;SDS011;54998;42.656;23.382;2022-09-03T13:30:28;5.43;;;3.28;;
68178;SDS011;54998;42.656;23.382;2022-09-03T13:32:31;4.70;;;3.22;;
68178;SDS011;54998;42.656;23.382;2022-09-03T13:35:05;5.70;;;3.47;;
68178;SDS011;54998;42.656;23.382;2022-09-03T13:37:54;4.15;;;2.80;;
68178;SDS011;54998;42.656;23.382;2022-09-03T13:40:20;4.57;;;2.80;;
68178;SDS011;54998;42.656;23.382;2022-09-03T13:42:55;4.63;;;3.30;;
68178;SDS011;54998;42.656;23.382;2022-09-03T13:50:44;5.00;;;3.17;;
68178;SDS011;54998;42.656;23.382;2022-09-03T13:55:54;5.78;;;3.92;;
68178;SDS011;54998;42.656;23.382;2022-09-03T13:58:36;3.78;;;2.50;;
68178;SDS011;54998;42.656;23.382;2022-09-03T14:10:38;4.32;;;2.70;;
68178;SDS011;54998;42.656;23.382;2022-09-03T14:13:16;3.60;;;2.45;;
68178;SDS011;54998;42.656;23.382;2022-09-03T14:15:51;3.55;;;2.47;;
68178;SDS011;54998;42.656;23.382;2022-09-03T14:21:07;5.40;;;2.70;;
68178;SDS011;54998;42.656;23.382;2022-09-03T14:26:35;4.30;;;2.10;;
68178;SDS011;54998;42.656;23.382;2022-09-03T14:53:56;4.80;;;3.08;;
68178;SDS011;54998;42.656;23.382;2022-09-03T15:05:05;5.15;;;3.35;;
68178;SDS011;54998;42.656;23.382;2022-09-03T15:07:55;4.20;;;2.90;;
68178;SDS011;54998;42.656;23.382;2022-09-03T15:10:38;5.10;;;3.33;;
68178;SDS011;54998;42.656;23.382;2022-09-03T15:36:48;4.88;;;3.60;;
68178;SDS011;54998;42.656;23.382;2022-09-03T15:39:21;4.90;;;4.00;;
68178;SDS011;54998;42.656;23.382;2022-09-03T15:42:06;6.68;;;3.67;;
68178;SDS011;54998;42.656;23.382;2022-09-03T15:44:44;5.28;;;3.78;;
68178;SDS011;54998;42.656;23.382;2022-09-03T15:47:24;7.32;;;3.97;;
68178;SDS011;54998;42.656;23.382;2022-09-03T15:55:37;6.85;;;4.65;;
68178;SDS011;54998;42.656;23.382;2022-09-03T16:03:10;7.20;;;5.05;;
68178;SDS011;54998;42.656;23.382;2022-09-03T16:05:47;7.47;;;5.30;;
68178;SDS011;54998;42.656;23.382;2022-09-03T16:09:08;7.35;;;4.88;;
68178;SDS011;54998;42.656;23.382;2022-09-03T16:16:56;10.88;;;6.05;;
68178;SDS011;54998;42.656;23.382;2022-09-03T16:19:29;7.22;;;5.38;;
68178;SDS011;54998;42.656;23.382;2022-09-03T16:22:06;6.50;;;5.07;;
68178;SDS011;54998;42.656;23.382;2022-09-03T16:24:46;8.23;;;5.60;;
68178;SDS011;54998;42.656;23.382;2022-09-03T16:27:21;7.40;;;5.53;;
68178;SDS011;54998;42.656;23.382;2022-09-03T16:29:57;7.80;;;5.68;;
68178;SDS011;54998;42.656;23.382;2022-09-03T16:32:29;7.07;;;5.13;;
68178;SDS011;54998;42.656;23.382;2022-09-03T16:43:10;8.50;;;6.05;;
68178;SDS011;54998;42.656;23.382;2022-09-03T16:52:05;6.57;;;4.97;;
68178;SDS011;54998;42.656;23.382;2022-09-03T17:10:32;9.55;;;5.90;;
68178;SDS011;54998;42.656;23.382;2022-09-03T17:18:16;10.35;;;6.18;;
68178;SDS011;54998;42.656;23.382;2022-09-03T17:21:31;8.32;;;5.72;;
68178;SDS011;54998;42.656;23.382;2022-09-03T17:28:49;7.82;;;5.68;;
68178;SDS011;54998;42.656;23.382;2022-09-03T17:31:53;10.07;;;6.95;;
68178;SDS011;54998;42.656;23.382;2022-09-03T17:37:17;9.23;;;6.03;;
68178;SDS011;54998;42.656;23.382;2022-09-03T17:50:47;8.27;;;6.07;;
68178;SDS011;54998;42.656;23.382;2022-09-03T17:53:21;9.50;;;6.18;;
68178;SDS011;54998;42.656;23.382;2022-09-03T17:55:57;10.48;;;6.28;;
68178;SDS011;54998;42.656;23.382;2022-09-03T17:58:33;8.85;;;5.80;;
68178;SDS011;54998;42.656;23.382;2022-09-03T18:06:41;10.45;;;6.32;;
68178;SDS011;54998;42.656;23.382;2022-09-03T18:09:32;9.07;;;6.30;;
68178;SDS011;54998;42.656;23.382;2022-09-03T18:12:25;10.18;;;6.20;;
68178;SDS011;54998;42.656;23.382;2022-09-03T18:15:03;8.55;;;5.78;;
68178;SDS011;54998;42.656;23.382;2022-09-03T18:17:34;8.77;;;6.55;;
68178;SDS011;54998;42.656;23.382;2022-09-03T18:20:08;9.27;;;6.13;;
68178;SDS011;54998;42.656;23.382;2022-09-03T18:22:58;8.57;;;6.18;;
68178;SDS011;54998;42.656;23.382;2022-09-03T18:26:11;10.73;;;7.63;;
68178;SDS011;54998;42.656;23.382;2022-09-03T18:29:06;10.13;;;6.68;;
68178;SDS011;54998;42.656;23.382;2022-09-03T18:31:55;10.35;;;6.55;;
68178;SDS011;54998;42.656;23.382;2022-09-03T18:34:39;10.23;;;6.60;;
68178;SDS011;54998;42.656;23.382;2022-09-03T18:37:25;12.63;;;6.80;;
68178;SDS011;54998;42.656;23.382;2022-09-03T18:40:13;9.75;;;6.40;;
68178;SDS011;54998;42.656;23.382;2022-09-03T18:46:26;8.82;;;6.10;;
68178;SDS011;54998;42.656;23.382;2022-09-03T18:49:26;11.30;;;7.40;;
68178;SDS011;54998;42.656;23.382;2022-09-03T18:52:30;11.07;;;7.35;;
68178;SDS011;54998;42.656;23.382;2022-09-03T19:01:37;10.18;;;6.70;;
68178;SDS011;54998;42.656;23.382;2022-09-03T19:05:05;8.95;;;6.40;;
68178;SDS011;54998;42.656;23.382;2022-09-03T19:07:54;10.27;;;6.50;;
68178;SDS011;54998;42.656;23.382;2022-09-03T19:13:48;11.90;;;7.15;;
68178;SDS011;54998;42.656;23.382;2022-09-03T19:22:39;13.48;;;10.15;;
68178;SDS011;54998;42.656;23.382;2022-09-03T19:25:27;11.98;;;7.15;;
68178;SDS011;54998;42.656;23.382;2022-09-03T19:28:23;13.52;;;7.18;;
68178;SDS011;54998;42.656;23.382;2022-09-03T19:31:22;11.40;;;7.05;;
68178;SDS011;54998;42.656;23.382;2022-09-03T19:37:40;10.20;;;6.78;;
68178;SDS011;54998;42.656;23.382;2022-09-03T19:40:56;9.40;;;6.32;;
68178;SDS011;54998;42.656;23.382;2022-09-03T19:55:31;11.38;;;6.80;;
68178;SDS011;54998;42.656;23.382;2022-09-03T19:58:18;12.30;;;7.43;;
68178;SDS011;54998;42.656;23.382;2022-09-03T20:01:06;12.98;;;7.70;;
68178;SDS011;54998;42.656;23.382;2022-09-03T20:03:52;13.73;;;7.97;;
68178;SDS011;54998;42.656;23.382;2022-09-03T20:06:39;12.25;;;6.97;;
68178;SDS011;54998;42.656;23.382;2022-09-03T20:09:25;9.95;;;7.22;;
68178;SDS011;54998;42.656;23.382;2022-09-03T20:12:16;11.90;;;7.45;;
68178;SDS011;54998;42.656;23.382;2022-09-03T20:14:45;11.82;;;7.15;;
68178;SDS011;54998;42.656;23.382;2022-09-03T20:17:54;12.15;;;7.20;;
68178;SDS011;54998;42.656;23.382;2022-09-03T20:22:29;10.27;;;7.38;;
68178;SDS011;54998;42.656;23.382;2022-09-03T20:27:54;12.57;;;8.20;;
68178;SDS011;54998;42.656;23.382;2022-09-03T20:47:54;15.20;;;8.82;;
68178;SDS011;54998;42.656;23.382;2022-09-03T20:55:52;13.43;;;8.68;;
68178;SDS011;54998;42.656;23.382;2022-09-03T20:58:25;14.95;;;9.02;;
68178;SDS011;54998;42.656;23.382;2022-09-03T21:01:35;17.23;;;9.00;;
68178;SDS011;54998;42.656;23.382;2022-09-03T21:09:30;16.70;;;9.75;;
68178;SDS011;54998;42.656;23.382;2022-09-03T21:12:20;16.52;;;9.25;;
68178;SDS011;54998;42.656;23.382;2022-09-03T21:25:37;16.42;;;9.27;;
68178;SDS011;54998;42.656;23.382;2022-09-03T21:28:21;13.93;;;9.02;;
68178;SDS011;54998;42.656;23.382;2022-09-03T21:33:34;13.50;;;7.88;;
68178;SDS011;54998;42.656;23.382;2022-09-03T21:36:10;24.23;;;9.15;;
68178;SDS011;54998;42.656;23.382;2022-09-03T21:38:39;13.60;;;7.85;;
68178;SDS011;54998;42.656;23.382;2022-09-03T21:43:47;14.02;;;8.80;;
68178;SDS011;54998;42.656;23.382;2022-09-03T21:48:56;14.15;;;8.35;;
68178;SDS011;54998;42.656;23.382;2022-09-03T21:51:26;14.85;;;9.02;;
68178;SDS011;54998;42.656;23.382;2022-09-03T21:54:03;14.90;;;8.50;;
68178;SDS011;54998;42.656;23.382;2022-09-03T21:56:43;14.50;;;8.40;;
68178;SDS011;54998;42.656;23.382;2022-09-03T22:02:07;13.48;;;7.28;;
68178;SDS011;54998;42.656;23.382;2022-09-03T22:04:41;12.52;;;8.50;;
68178;SDS011;54998;42.656;23.382;2022-09-03T22:12:20;12.85;;;8.35;;
68178;SDS011;54998;42.656;23.382;2022-09-03T22:14:53;13.23;;;8.38;;
68178;SDS011;54998;42.656;23.382;2022-09-03T22:20:13;17.33;;;9.30;;
68178;SDS011;54998;42.656;23.382;2022-09-03T22:25:10;16.67;;;8.68;;
68178;SDS011;54998;42.656;23.382;2022-09-03T22:27:48;15.13;;;8.65;;